createdAt,value
2019-04-16T00:02:41.159Z,7.77
2019-04-16T00:05:19.445Z,7.70
2019-04-16T00:07:56.360Z,6.93
2019-04-16T00:10:29.999Z,7.87
2019-04-16T00:13:29.058Z,7.47
2019-04-16T00:15:59.961Z,7.57
2019-04-16T00:18:29.876Z,7.97
2019-04-16T00:21:38.497Z,7.67
2019-04-16T00:24:23.518Z,7.53
2019-04-16T00:26:58.025Z,7.60
2019-04-16T00:29:26.665Z,7.53
2019-04-16T00:32:16.097Z,7.83
2019-04-16T00:34:48.321Z,7.33
2019-04-16T00:37:20.760Z,7.47
2019-04-16T00:39:50.035Z,7.50
2019-04-16T00:42:19.994Z,7.93
2019-04-16T00:44:50.753Z,7.03
2019-04-16T00:47:21.012Z,7.57
2019-04-16T00:49:50.870Z,7.17
2019-04-16T00:52:21.054Z,7.60
2019-04-16T00:54:51.071Z,7.93
2019-04-16T00:57:21.014Z,8.23
2019-04-16T00:59:54.991Z,7.73
2019-04-16T01:02:23.935Z,7.67
2019-04-16T01:04:53.820Z,8.30
2019-04-16T01:07:23.846Z,6.90
2019-04-16T01:09:58.240Z,7.60
2019-04-16T01:12:28.161Z,7.87
2019-04-16T01:15:00.588Z,7.47
2019-04-16T01:17:30.239Z,8.53
2019-04-16T01:20:00.250Z,7.93
2019-04-16T01:22:30.112Z,9.13
2019-04-16T01:25:02.051Z,8.50
2019-04-16T01:27:34.981Z,9.23
2019-04-16T01:30:06.477Z,8.00
2019-04-16T01:33:02.928Z,8.07
2019-04-16T01:35:52.748Z,8.87
2019-04-16T01:38:33.799Z,9.27
2019-04-16T01:41:06.039Z,8.73
2019-04-16T01:43:36.080Z,9.10
2019-04-16T01:46:06.392Z,8.90
2019-04-16T01:48:38.939Z,8.37
2019-04-16T01:51:09.668Z,8.63
2019-04-16T01:53:40.355Z,8.87
2019-04-16T01:56:11.033Z,8.30
2019-04-16T01:58:40.950Z,8.43
2019-04-16T02:01:12.261Z,8.37
2019-04-16T02:03:42.474Z,8.73
2019-04-16T02:06:12.386Z,8.53
2019-04-16T02:08:42.490Z,8.90
2019-04-16T02:11:12.480Z,8.50
2019-04-16T02:13:45.888Z,9.20
2019-04-16T02:16:15.391Z,9.10
2019-04-16T02:18:45.511Z,9.10
2019-04-16T02:21:15.790Z,8.23
2019-04-16T02:23:48.146Z,8.37
2019-04-16T02:26:17.330Z,8.20
2019-04-16T02:28:47.356Z,7.87
2019-04-16T02:31:17.927Z,8.37
2019-04-16T02:33:48.350Z,8.63
2019-04-16T02:36:18.339Z,8.70
2019-04-16T02:38:53.163Z,9.37
2019-04-16T02:41:23.420Z,8.87
2019-04-16T02:43:52.342Z,8.87
2019-04-16T02:46:32.320Z,8.00
2019-04-16T02:48:59.581Z,9.30
2019-04-16T02:51:51.710Z,8.23
2019-04-16T02:54:44.546Z,7.73
2019-04-16T02:57:45.928Z,8.77
2019-04-16T03:00:28.259Z,8.23
2019-04-16T03:03:06.521Z,8.63
2019-04-16T03:05:38.840Z,9.27
2019-04-16T03:08:08.860Z,8.37
2019-04-16T03:10:41.720Z,8.90
2019-04-16T03:13:10.948Z,8.33
2019-04-16T03:16:05.835Z,9.13
2019-04-16T03:18:46.986Z,9.27
2019-04-16T03:21:14.749Z,8.43
2019-04-16T03:23:44.694Z,8.00
2019-04-16T03:26:17.564Z,8.67
2019-04-16T03:28:46.604Z,7.93
2019-04-16T03:31:22.377Z,8.10
2019-04-16T03:33:50.754Z,8.63
2019-04-16T03:36:20.566Z,12.80
2019-04-16T03:38:50.452Z,10.87
2019-04-16T03:41:20.844Z,10.37
2019-04-16T03:43:50.728Z,8.53
2019-04-16T03:46:20.781Z,8.43
2019-04-16T03:48:52.559Z,9.13
2019-04-16T03:51:22.369Z,8.10
2019-04-16T03:53:52.273Z,8.37
2019-04-16T03:56:22.431Z,8.20
2019-04-16T03:58:52.644Z,8.60
2019-04-16T04:01:22.739Z,8.00
2019-04-16T04:03:54.424Z,7.87
2019-04-16T04:06:24.325Z,8.00
2019-04-16T04:08:54.730Z,7.43
2019-04-16T04:11:26.794Z,7.47
2019-04-16T04:13:59.494Z,8.70
2019-04-16T04:16:30.524Z,7.60
2019-04-16T04:19:02.572Z,7.50
2019-04-16T04:21:32.469Z,7.60
2019-04-16T04:24:02.872Z,8.03
2019-04-16T04:26:32.783Z,8.27
2019-04-16T04:29:06.019Z,8.10
2019-04-16T04:31:35.374Z,7.87
2019-04-16T04:34:05.263Z,7.80
2019-04-16T04:36:36.864Z,6.93
2019-04-16T04:39:09.898Z,8.53
2019-04-16T04:41:39.954Z,8.47
2019-04-16T04:44:09.915Z,8.20
2019-04-16T04:46:43.261Z,7.97
2019-04-16T04:49:13.595Z,8.57
2019-04-16T04:51:43.690Z,8.00
2019-04-16T04:54:13.984Z,7.90
2019-04-16T04:56:44.469Z,8.70
2019-04-16T04:59:14.503Z,7.97
2019-04-16T05:01:44.451Z,7.73
2019-04-16T05:04:42.460Z,7.63
2019-04-16T05:07:12.895Z,6.97
2019-04-16T05:09:42.865Z,7.73
2019-04-16T05:12:13.796Z,8.07
2019-04-16T05:14:58.442Z,8.37
2019-04-16T05:17:29.845Z,7.67
2019-04-16T05:20:15.418Z,8.20
2019-04-16T05:22:46.558Z,8.27
2019-04-16T05:25:16.659Z,6.93
2019-04-16T05:27:50.291Z,7.27
2019-04-16T05:30:21.877Z,7.70
2019-04-16T05:32:52.267Z,7.73
2019-04-16T05:35:27.481Z,7.77
2019-04-16T05:37:57.905Z,7.90
2019-04-16T05:40:34.038Z,7.17
2019-04-16T05:43:01.766Z,7.93
2019-04-16T05:45:34.504Z,6.57
2019-04-16T05:48:06.076Z,7.77
2019-04-16T05:50:36.402Z,7.13
2019-04-16T05:53:08.468Z,7.10
2019-04-16T05:55:57.423Z,7.23
2019-04-16T05:58:32.352Z,7.37
2019-04-16T06:01:10.498Z,7.33
2019-04-16T06:03:43.571Z,6.97
2019-04-16T06:06:15.407Z,7.53
2019-04-16T06:09:11.924Z,6.93
2019-04-16T06:11:40.317Z,6.97
2019-04-16T06:14:25.439Z,6.80
2019-04-16T06:17:17.112Z,6.43
2019-04-16T06:20:04.411Z,6.53
2019-04-16T06:22:39.951Z,6.57
2019-04-16T06:25:33.627Z,6.70
2019-04-16T06:31:19.621Z,6.40
2019-04-16T06:34:08.744Z,6.73
2019-04-16T06:37:02.179Z,7.00
2019-04-16T06:39:45.900Z,7.03
2019-04-16T06:42:38.680Z,7.00
2019-04-16T06:45:36.494Z,6.73
2019-04-16T06:48:12.880Z,6.77
2019-04-16T06:53:53.993Z,6.57
2019-04-16T06:56:45.418Z,6.80
2019-04-16T06:59:37.363Z,7.13
2019-04-16T07:02:25.064Z,5.57
2019-04-16T07:05:14.110Z,6.73
2019-04-16T07:08:06.325Z,6.60
2019-04-16T07:10:44.711Z,7.20
2019-04-16T07:13:12.346Z,6.47
2019-04-16T07:15:46.430Z,7.23
2019-04-16T07:18:16.667Z,7.40
2019-04-16T07:20:55.506Z,6.40
2019-04-16T07:23:25.978Z,6.73
2019-04-16T07:25:56.326Z,7.60
2019-04-16T07:28:34.231Z,7.37
2019-04-16T07:31:32.835Z,7.50
2019-04-16T07:34:03.568Z,7.00
2019-04-16T07:36:42.398Z,6.93
2019-04-16T07:39:29.949Z,7.47
2019-04-16T07:42:12.604Z,6.80
2019-04-16T07:44:58.861Z,6.63
2019-04-16T07:48:06.114Z,7.23
2019-04-16T07:50:53.635Z,7.10
2019-04-16T07:53:47.162Z,7.20
2019-04-16T07:56:19.426Z,7.00
2019-04-16T07:58:49.384Z,7.33
2019-04-16T08:01:20.365Z,7.33
2019-04-16T08:03:50.514Z,7.63
2019-04-16T08:06:20.416Z,6.77
2019-04-16T08:08:53.915Z,7.17
2019-04-16T08:11:23.985Z,7.57
2019-04-16T08:13:54.139Z,7.47
2019-04-16T08:16:25.472Z,7.37
2019-04-16T08:18:58.938Z,7.67
2019-04-16T08:21:29.060Z,7.63
2019-04-16T08:24:12.427Z,8.07
2019-04-16T08:26:45.089Z,7.60
2019-04-16T08:29:16.585Z,8.30
2019-04-16T08:31:51.521Z,7.70
2019-04-16T08:34:26.605Z,7.53
2019-04-16T08:36:56.570Z,7.63
2019-04-16T08:39:33.456Z,8.33
2019-04-16T08:42:04.591Z,7.77
2019-04-16T08:44:35.826Z,7.97
2019-04-16T08:47:12.966Z,8.50
2019-04-16T08:49:43.300Z,7.63
2019-04-16T08:52:13.263Z,8.30
2019-04-16T08:54:50.087Z,8.33
2019-04-16T09:09:48.577Z,8.40
2019-04-16T09:12:25.234Z,8.70
2019-04-16T09:15:05.363Z,8.17
2019-04-16T09:17:51.128Z,8.30
2019-04-16T09:20:37.727Z,8.60
2019-04-16T09:23:09.706Z,8.60
2019-04-16T09:26:13.004Z,9.03
2019-04-16T09:28:42.229Z,8.43
2019-04-16T09:31:31.111Z,9.13
2019-04-16T09:34:08.201Z,8.40
2019-04-16T09:37:00.291Z,8.67
2019-04-16T09:39:47.542Z,8.70
2019-04-16T09:42:19.737Z,8.77
2019-04-16T09:44:50.118Z,9.00
2019-04-16T09:47:20.095Z,8.90
2019-04-16T09:49:50.080Z,9.07
2019-04-16T09:52:23.003Z,9.10
2019-04-16T09:54:51.706Z,9.43
2019-04-16T09:57:24.359Z,9.67
2019-04-16T10:00:08.317Z,8.83
2019-04-16T10:02:38.915Z,10.17
2019-04-16T10:05:09.171Z,9.53
2019-04-16T10:07:40.380Z,9.70
2019-04-16T10:10:11.645Z,9.37
2019-04-16T10:12:42.270Z,9.50
2019-04-16T10:15:16.683Z,9.57
2019-04-16T10:17:49.826Z,9.17
2019-04-16T10:20:19.835Z,9.40
2019-04-16T10:22:52.104Z,9.97
2019-04-16T10:25:22.315Z,9.83
2019-04-16T10:28:04.904Z,9.67
2019-04-16T10:30:53.098Z,10.17
2019-04-16T10:33:24.244Z,11.17
2019-04-16T10:36:04.578Z,10.63
2019-04-16T10:39:06.104Z,10.40
2019-04-16T10:41:56.508Z,9.90
2019-04-16T10:44:44.478Z,10.27
2019-04-16T10:47:51.791Z,10.07
2019-04-16T10:50:39.640Z,11.17
2019-04-16T10:53:29.274Z,10.73
2019-04-16T10:56:20.768Z,10.47
2019-04-16T10:59:05.290Z,11.50
2019-04-16T11:01:43.506Z,11.60
2019-04-16T11:04:34.702Z,11.30
2019-04-16T11:07:10.931Z,10.80
2019-04-16T11:09:44.544Z,10.73
2019-04-16T11:12:14.741Z,11.60
2019-04-16T11:14:47.664Z,10.87
2019-04-16T11:17:19.483Z,11.67
2019-04-16T11:19:54.160Z,12.20
2019-04-16T11:22:24.179Z,11.60
2019-04-16T11:24:54.144Z,11.97
2019-04-16T11:27:26.841Z,12.30
2019-04-16T11:29:57.763Z,12.20
2019-04-16T11:32:29.299Z,11.53
2019-04-16T11:34:59.248Z,11.87
2019-04-16T11:37:36.559Z,13.00
2019-04-16T11:40:07.366Z,13.13
2019-04-16T11:42:37.315Z,12.30
2019-04-16T11:45:07.741Z,12.37
2019-04-16T11:47:38.470Z,12.87
2019-04-16T11:50:11.634Z,12.27
2019-04-16T11:52:44.283Z,12.73
2019-04-16T11:55:14.886Z,12.57
2019-04-16T11:57:47.663Z,12.53
2019-04-16T12:00:24.351Z,12.57
2019-04-16T12:03:22.262Z,12.50
2019-04-16T12:06:10.409Z,12.67
2019-04-16T12:09:05.590Z,11.77
2019-04-16T12:12:03.877Z,12.50
2019-04-16T12:14:42.414Z,12.17
2019-04-16T12:17:25.646Z,12.27
2019-04-16T12:20:14.220Z,12.37
2019-04-16T12:23:24.195Z,12.33
2019-04-16T12:26:18.733Z,12.93
2019-04-16T12:29:14.322Z,13.27
2019-04-16T12:32:21.356Z,12.97
2019-04-16T12:35:10.551Z,13.40
2019-04-16T12:37:57.978Z,13.23
2019-04-16T12:40:55.552Z,13.33
2019-04-16T12:43:35.113Z,13.30
2019-04-16T12:46:36.564Z,13.37
2019-04-16T12:49:24.182Z,13.40
2019-04-16T12:52:17.364Z,12.60
2019-04-16T12:54:59.315Z,12.50
2019-04-16T12:57:47.337Z,13.00
2019-04-16T13:00:33.413Z,12.93
2019-04-16T13:06:43.067Z,13.30
2019-04-16T13:09:36.448Z,13.10
2019-04-16T13:12:32.748Z,13.50
2019-04-16T13:15:22.033Z,14.37
2019-04-16T13:18:19.706Z,13.70
2019-04-16T13:21:09.361Z,13.60
2019-04-16T13:24:04.467Z,13.57
2019-04-16T13:26:56.307Z,13.97
2019-04-16T13:29:29.473Z,13.50
2019-04-16T13:31:59.953Z,12.90
2019-04-16T13:34:30.138Z,14.20
2019-04-16T13:37:01.011Z,14.57
2019-04-16T13:39:55.151Z,14.87
2019-04-16T13:42:25.172Z,14.00
2019-04-16T13:45:16.591Z,14.03
2019-04-16T13:47:46.119Z,14.77
2019-04-16T13:50:26.702Z,14.73
2019-04-16T13:53:05.753Z,14.90
2019-04-16T13:56:03.468Z,13.80
2019-04-16T13:58:41.216Z,13.60
2019-04-16T14:01:21.426Z,14.73
2019-04-16T14:03:57.430Z,14.57
2019-04-16T14:06:33.313Z,13.50
2019-04-16T14:09:11.481Z,13.63
2019-04-16T14:11:53.648Z,13.73
2019-04-16T14:14:28.196Z,14.33
2019-04-16T14:17:08.973Z,14.07
2019-04-16T14:19:31.105Z,14.03
2019-04-16T14:22:04.966Z,13.93
2019-04-16T14:24:34.893Z,14.37
2019-04-16T14:27:14.597Z,15.50
2019-04-16T14:29:44.917Z,14.90
2019-04-16T14:32:16.787Z,13.70
2019-04-16T14:35:15.557Z,14.43
2019-04-16T14:37:46.266Z,13.97
2019-04-16T14:43:15.432Z,13.57
2019-04-16T14:46:00.104Z,14.20
2019-04-16T14:48:29.588Z,13.43
2019-04-16T14:51:03.466Z,13.63
2019-04-16T14:53:51.997Z,13.47
2019-04-16T14:56:36.803Z,14.23
2019-04-16T14:59:43.100Z,14.13
2019-04-16T15:02:38.747Z,15.03
2019-04-16T15:05:38.333Z,14.80
2019-04-16T15:08:54.406Z,14.13
2019-04-16T15:11:41.817Z,15.87
2019-04-16T15:14:18.641Z,15.90
2019-04-16T15:17:12.229Z,15.50
2019-04-16T15:19:55.362Z,15.90
2019-04-16T15:22:43.271Z,15.37
2019-04-16T15:25:32.697Z,13.73
2019-04-16T15:28:20.104Z,14.57
2019-04-16T15:31:02.681Z,14.50
2019-04-16T15:33:50.622Z,15.00
2019-04-16T15:36:24.272Z,14.37
2019-04-16T15:39:11.413Z,14.10
2019-04-16T15:42:00.308Z,14.73
2019-04-16T15:48:04.409Z,15.73
2019-04-16T15:50:56.402Z,14.13
2019-04-16T15:53:37.943Z,15.40
2019-04-16T15:56:17.109Z,15.27
2019-04-16T15:58:55.478Z,14.50
2019-04-16T16:01:53.973Z,14.80
2019-04-16T16:04:48.999Z,14.67
2019-04-16T16:07:25.669Z,14.83
2019-04-16T16:10:24.517Z,14.17
2019-04-16T16:12:54.661Z,14.93
2019-04-16T16:15:25.355Z,14.93
2019-04-16T16:17:55.337Z,15.00
2019-04-16T16:20:25.860Z,15.93
2019-04-16T16:23:02.022Z,14.63
2019-04-16T16:25:33.391Z,15.93
2019-04-16T16:28:10.619Z,15.30
2019-04-16T16:30:48.073Z,14.27
2019-04-16T16:33:19.005Z,15.63
2019-04-16T16:35:57.783Z,15.07
2019-04-16T16:38:24.670Z,14.40
2019-04-16T16:40:56.238Z,15.77
2019-04-16T16:43:27.330Z,14.13
2019-04-16T16:46:28.928Z,15.27
2019-04-16T16:48:59.482Z,15.20
2019-04-16T16:51:41.641Z,14.67
2019-04-16T16:54:24.334Z,13.97
2019-04-16T16:57:08.646Z,14.33
2019-04-16T16:59:49.396Z,14.23
2019-04-16T17:02:39.766Z,13.83
2019-04-16T17:05:16.041Z,14.53
2019-04-16T17:07:46.917Z,14.13
2019-04-16T17:10:33.976Z,13.90
2019-04-16T17:13:17.015Z,14.53
2019-04-16T17:15:47.756Z,14.10
2019-04-16T17:18:18.514Z,14.87
2019-04-16T17:20:51.287Z,13.57
2019-04-16T17:23:25.711Z,13.70
2019-04-16T17:25:58.674Z,13.03
2019-04-16T17:28:40.404Z,13.50
2019-04-16T17:31:12.196Z,13.37
2019-04-16T17:33:44.587Z,13.07
2019-04-16T17:36:15.755Z,12.47
2019-04-16T17:38:46.743Z,12.90
2019-04-16T17:41:26.154Z,11.87
2019-04-16T17:44:22.695Z,11.33
2019-04-16T17:47:19.523Z,10.23
2019-04-16T17:50:12.748Z,12.43
2019-04-16T17:52:54.724Z,12.20
2019-04-16T17:55:44.413Z,11.83
2019-04-16T17:58:27.344Z,11.13
2019-04-16T18:01:24.808Z,10.73
2019-04-16T18:04:17.994Z,11.73
2019-04-16T18:07:16.090Z,11.33
2019-04-16T18:13:13.236Z,13.30
2019-04-16T18:16:08.565Z,13.03
2019-04-16T18:18:58.931Z,11.07
2019-04-16T18:21:47.497Z,10.20
2019-04-16T18:24:40.327Z,12.00
2019-04-16T18:27:33.103Z,10.77
2019-04-16T18:30:31.928Z,11.07
2019-04-16T18:33:30.489Z,12.97
2019-04-16T18:36:20.451Z,12.83
2019-04-16T18:39:16.543Z,9.70
2019-04-16T18:41:55.771Z,8.30
2019-04-16T18:44:51.358Z,7.10
2019-04-16T18:53:46.631Z,6.50
2019-04-16T18:56:23.524Z,6.00
2019-04-16T18:59:41.444Z,5.30
2019-04-16T19:02:41.833Z,5.20
2019-04-16T19:05:24.183Z,4.97
2019-04-16T19:11:49.798Z,4.87
2019-04-16T19:14:31.212Z,4.27
2019-04-16T19:17:03.619Z,4.33
2019-04-16T19:19:37.268Z,4.80
2019-04-16T19:22:52.456Z,4.93
2019-04-16T19:25:40.037Z,4.43
2019-04-16T19:28:14.031Z,5.30
2019-04-16T19:30:48.237Z,4.30
2019-04-16T19:33:26.447Z,3.57
2019-04-16T19:35:59.521Z,2.90
2019-04-16T19:38:35.763Z,2.43
2019-04-16T19:41:08.721Z,2.20
2019-04-16T19:43:48.217Z,3.03
2019-04-16T19:49:31.066Z,2.77
2019-04-16T19:52:09.403Z,2.40
2019-04-16T20:15:43.183Z,2.20
2019-04-16T20:18:50.804Z,2.07
2019-04-16T20:29:22.269Z,2.40
2019-04-16T20:44:54.564Z,2.53
2019-04-16T20:58:49.355Z,3.23
2019-04-16T21:01:35.256Z,3.17
2019-04-16T21:04:07.039Z,2.80
2019-04-16T21:06:55.761Z,2.83
2019-04-16T21:14:10.678Z,3.50
2019-04-16T21:21:11.008Z,3.20
2019-04-16T21:27:43.212Z,5.57
2019-04-16T21:30:28.438Z,4.97
2019-04-16T21:36:48.975Z,3.60
2019-04-16T21:39:28.576Z,2.70
2019-04-16T21:42:02.835Z,3.23
2019-04-16T21:44:33.936Z,2.70
2019-04-16T22:05:31.456Z,2.60
2019-04-16T22:08:05.937Z,2.77
2019-04-16T22:10:39.026Z,2.60
2019-04-16T22:35:31.926Z,3.37
2019-04-16T22:38:02.377Z,3.93
2019-04-16T22:40:42.198Z,4.10
2019-04-16T22:43:29.838Z,3.90
2019-04-16T22:46:27.754Z,3.40
2019-04-16T22:49:18.577Z,3.10
2019-04-16T22:51:55.742Z,3.10
2019-04-16T22:54:26.351Z,3.13
2019-04-16T22:57:05.210Z,3.00
2019-04-16T22:59:40.047Z,3.13
2019-04-16T23:02:22.185Z,3.30
2019-04-16T23:04:54.868Z,3.10
2019-04-16T23:07:28.681Z,2.47
2019-04-16T23:09:59.602Z,2.57
2019-04-16T23:12:32.192Z,3.47
2019-04-16T23:15:57.375Z,3.17
2019-04-16T23:18:34.255Z,2.93
2019-04-16T23:21:08.871Z,3.13
2019-04-16T23:23:51.237Z,2.73
2019-04-16T23:26:32.137Z,3.10
2019-04-16T23:29:02.857Z,2.90
2019-04-16T23:31:33.037Z,3.40
2019-04-16T23:34:06.419Z,2.70
2019-04-16T23:36:35.601Z,3.03
2019-04-16T23:39:07.933Z,2.97
2019-04-16T23:41:38.451Z,3.47
2019-04-16T23:44:26.718Z,3.07
2019-04-16T23:47:15.434Z,3.00
2019-04-16T23:49:51.041Z,2.67
2019-04-16T23:52:31.937Z,2.77
2019-04-16T23:55:17.494Z,3.20
2019-04-16T23:58:03.381Z,2.83
